Time;durP1;ratioP1;P1;durP2;ratioP2;P2;SDS_P1;SDS_P2;PMS_P1;PMS_P2;Temp;Humidity;BMP_temperature;BMP_pressure;BME280_temperature;BME280_humidity;BME280_pressure;Samples;Min_cycle;Max_cycle;Signal;HPM_P1;HPM_P2
2023/10/13 00:00:41;;;;;;;4.90;4.50;;;23.10;60.00;;;;;;5052358;28;20421;-76
2023/10/13 00:03:14;;;;;;;4.97;4.47;;;23.10;59.90;;;;;;5051380;28;20537;-76
2023/10/13 00:05:43;;;;;;;5.23;4.43;;;23.10;60.00;;;;;;5052283;28;20432;-76
2023/10/13 00:08:13;;;;;;;5.30;4.80;;;23.10;60.20;;;;;;5052401;28;20552;-76
2023/10/13 00:10:42;;;;;;;4.80;4.30;;;23.10;60.10;;;;;;5056271;28;20439;-76
2023/10/13 00:13:16;;;;;;;4.40;4.10;;;23.10;60.10;;;;;;5055721;28;20470;-76
2023/10/13 00:15:52;;;;;;;8.17;4.80;;;23.10;60.00;;;;;;5063603;28;20450;-75
2023/10/13 00:18:20;;;;;;;6.00;4.10;;;23.10;60.90;;;;;;5064500;28;20438;-77
2023/10/13 00:20:49;;;;;;;6.93;4.70;;;23.10;60.20;;;;;;5052248;28;20470;-77
2023/10/13 00:23:21;;;;;;;5.17;4.27;;;23.10;60.10;;;;;;5056787;28;20442;-76
2023/10/13 00:25:58;;;;;;;5.50;4.13;;;23.10;60.10;;;;;;5056937;28;20437;-76
2023/10/13 00:28:35;;;;;;;6.30;4.70;;;23.10;60.10;;;;;;5049551;28;20474;-76
2023/10/13 00:31:10;;;;;;;5.33;4.80;;;23.00;60.10;;;;;;5053208;28;20514;-77
2023/10/13 00:33:40;;;;;;;6.03;4.50;;;23.10;60.20;;;;;;5057430;28;20492;-76
2023/10/13 00:36:10;;;;;;;5.30;4.53;;;23.10;61.00;;;;;;5057405;28;20423;-77
2023/10/13 00:38:39;;;;;;;5.93;4.70;;;23.10;60.20;;;;;;5056978;28;20409;-76
2023/10/13 00:41:14;;;;;;;5.70;5.20;;;23.10;60.40;;;;;;5050709;28;20529;-77
2023/10/13 00:44:04;;;;;;;7.60;5.27;;;23.10;60.40;;;;;;5051339;28;20453;-77
2023/10/13 00:46:33;;;;;;;6.70;5.20;;;23.10;60.40;;;;;;5050567;28;20426;-77
2023/10/13 00:49:02;;;;;;;6.03;5.23;;;23.10;60.40;;;;;;5051151;28;20457;-77
2023/10/13 00:51:35;;;;;;;5.87;4.80;;;23.10;60.60;;;;;;5057714;28;20465;-77
2023/10/13 00:54:07;;;;;;;5.37;4.80;;;23.10;60.40;;;;;;5057507;28;20450;-77
2023/10/13 00:56:40;;;;;;;6.20;5.40;;;23.10;60.60;;;;;;5057699;28;20445;-77
2023/10/13 00:59:09;;;;;;;7.07;5.03;;;23.10;60.70;;;;;;5058623;28;20449;-77
2023/10/13 01:01:40;;;;;;;7.40;4.93;;;23.10;60.90;;;;;;5056617;28;20851;-76
2023/10/13 01:04:08;;;;;;;7.37;5.03;;;23.00;60.70;;;;;;5055036;28;20462;-76
2023/10/13 01:06:37;;;;;;;6.90;5.07;;;23.10;60.90;;;;;;5055781;28;20438;-76
2023/10/13 01:09:13;;;;;;;5.77;4.50;;;23.10;60.90;;;;;;5055442;28;20529;-76
2023/10/13 01:11:43;;;;;;;5.23;4.57;;;23.10;60.70;;;;;;5055756;28;20430;-76
2023/10/13 01:14:11;;;;;;;7.83;5.33;;;23.00;60.80;;;;;;5054979;28;20502;-76
2023/10/13 01:16:43;;;;;;;7.80;5.20;;;23.10;60.90;;;;;;5055247;28;20526;-77
2023/10/13 01:19:12;;;;;;;5.40;4.63;;;23.10;61.00;;;;;;5056420;28;20419;-77
2023/10/13 01:21:41;;;;;;;5.80;4.90;;;23.10;60.90;;;;;;5058302;28;20442;-76
2023/10/13 01:24:11;;;;;;;5.20;4.80;;;23.10;60.90;;;;;;5060208;28;20473;-77
2023/10/13 01:26:40;;;;;;;5.60;5.10;;;23.10;60.90;;;;;;5057960;28;20500;-76
2023/10/13 01:29:18;;;;;;;6.30;5.70;;;23.10;61.10;;;;;;5055092;28;20497;-77
2023/10/13 01:31:47;;;;;;;7.30;5.60;;;23.10;60.90;;;;;;5047386;28;20446;-76
2023/10/13 01:34:19;;;;;;;7.03;5.80;;;23.10;61.00;;;;;;5046210;28;20554;-77
2023/10/13 01:36:50;;;;;;;9.37;5.90;;;23.10;61.20;;;;;;5056205;28;20453;-77
2023/10/13 01:39:20;;;;;;;7.23;5.97;;;23.10;61.20;;;;;;5057792;28;20953;-77
2023/10/13 01:41:55;;;;;;;10.27;6.40;;;23.10;61.10;;;;;;5055390;28;20443;-77
2023/10/13 01:44:23;;;;;;;7.10;6.40;;;23.10;61.10;;;;;;5055711;28;20469;-77
2023/10/13 01:46:52;;;;;;;7.17;6.47;;;23.10;61.20;;;;;;5047423;28;20957;-77
2023/10/13 01:49:22;;;;;;;6.90;6.10;;;23.10;61.20;;;;;;5054812;28;20467;-77
2023/10/13 01:51:49;;;;;;;7.73;6.50;;;23.10;61.40;;;;;;5055095;28;20442;-77
2023/10/13 01:54:17;;;;;;;9.23;6.50;;;23.10;61.50;;;;;;5054258;28;20463;-77
2023/10/13 01:56:46;;;;;;;9.33;7.03;;;23.20;61.30;;;;;;5053602;28;20447;-77
2023/10/13 01:59:15;;;;;;;8.50;7.10;;;23.10;61.50;;;;;;5052821;28;20446;-77
2023/10/13 02:01:42;;;;;;;8.57;6.50;;;23.10;61.40;;;;;;5051154;28;20477;-77
2023/10/13 02:04:10;;;;;;;8.63;7.10;;;23.10;61.30;;;;;;5054981;28;20470;-77
2023/10/13 02:06:37;;;;;;;10.43;7.20;;;23.10;61.70;;;;;;5048910;28;20441;-77
2023/10/13 02:09:12;;;;;;;7.97;6.73;;;23.20;61.50;;;;;;5055216;28;21083;-77
2023/10/13 02:11:41;;;;;;;6.60;5.90;;;23.20;61.60;;;;;;5053992;28;20446;-77
2023/10/13 02:14:12;;;;;;;7.80;6.73;;;23.20;61.80;;;;;;5053442;28;20565;-76
2023/10/13 02:16:39;;;;;;;10.33;7.13;;;23.20;61.60;;;;;;5053575;28;20531;-76
2023/10/13 02:19:08;;;;;;;8.33;7.07;;;23.10;61.80;;;;;;5053615;28;20447;-76
2023/10/13 02:21:39;;;;;;;7.70;6.70;;;23.10;61.80;;;;;;5053772;28;20446;-76
2023/10/13 02:24:12;;;;;;;9.80;7.20;;;23.20;61.80;;;;;;5051778;28;20557;-76
2023/10/13 02:26:40;;;;;;;12.67;7.00;;;23.20;62.00;;;;;;5047123;28;20559;-76
2023/10/13 02:29:08;;;;;;;9.10;6.60;;;23.20;62.10;;;;;;5045939;28;20475;-76
2023/10/13 02:31:37;;;;;;;7.93;7.13;;;23.20;62.10;;;;;;5053351;28;20421;-76
2023/10/13 02:34:08;;;;;;;9.73;7.13;;;23.20;62.20;;;;;;5044675;28;20467;-76
2023/10/13 02:36:36;;;;;;;7.73;6.93;;;23.20;62.30;;;;;;5049220;28;20440;-76
2023/10/13 02:39:07;;;;;;;7.10;6.40;;;23.20;62.20;;;;;;5033277;28;20474;-76
2023/10/13 02:41:37;;;;;;;7.90;7.10;;;23.20;62.20;;;;;;5046586;28;20422;-76
2023/10/13 02:44:06;;;;;;;9.17;7.30;;;23.20;62.30;;;;;;5053245;28;20528;-76
2023/10/13 02:46:35;;;;;;;8.67;6.40;;;23.20;62.20;;;;;;5045185;28;20538;-76
2023/10/13 02:49:10;;;;;;;7.90;7.10;;;23.30;62.10;;;;;;5048853;28;20482;-76
2023/10/13 02:51:42;;;;;;;9.23;7.13;;;23.30;62.30;;;;;;5053204;28;20465;-76
2023/10/13 02:54:11;;;;;;;9.10;7.20;;;23.20;62.40;;;;;;5044272;28;20463;-76
2023/10/13 02:56:48;;;;;;;10.87;6.93;;;23.20;62.50;;;;;;5046023;28;20480;-77
2023/10/13 02:59:19;;;;;;;10.23;7.40;;;23.20;62.50;;;;;;5052966;28;20434;-76
2023/10/13 03:01:47;;;;;;;9.67;7.23;;;23.30;62.60;;;;;;5048043;28;20461;-77
2023/10/13 03:04:23;;;;;;;7.93;7.13;;;23.30;62.50;;;;;;5045036;28;21018;-76
2023/10/13 03:06:50;;;;;;;7.70;6.90;;;23.20;62.60;;;;;;5052817;28;20435;-76
2023/10/13 03:09:18;;;;;;;7.40;6.70;;;23.20;62.60;;;;;;5044628;28;20503;-76
2023/10/13 03:11:48;;;;;;;6.97;6.30;;;23.30;62.60;;;;;;5052931;28;20508;-76
2023/10/13 03:14:25;;;;;;;8.37;7.43;;;23.30;62.60;;;;;;5056446;28;20466;-76
2023/10/13 03:16:53;;;;;;;8.50;7.30;;;23.30;62.60;;;;;;5049862;28;20437;-75
2023/10/13 03:19:32;;;;;;;12.30;7.13;;;23.30;62.70;;;;;;5056926;28;20479;-76
2023/10/13 03:22:09;;;;;;;7.93;6.87;;;23.30;63.00;;;;;;5054134;28;20476;-76
2023/10/13 03:24:41;;;;;;;9.10;6.40;;;23.30;62.90;;;;;;5046282;28;20462;-76
2023/10/13 03:27:10;;;;;;;7.87;6.97;;;23.30;63.00;;;;;;5053721;28;20481;-76
2023/10/13 03:29:42;;;;;;;7.63;6.93;;;23.30;63.00;;;;;;5045616;28;21024;-76
2023/10/13 03:32:12;;;;;;;8.33;7.33;;;23.30;63.20;;;;;;5053778;28;20441;-76
2023/10/13 03:34:49;;;;;;;10.60;7.27;;;23.30;63.10;;;;;;5052366;28;20504;-76
2023/10/13 03:37:22;;;;;;;9.50;7.37;;;23.30;63.20;;;;;;5051078;28;20483;-77
2023/10/13 03:39:51;;;;;;;8.00;7.10;;;23.30;63.00;;;;;;5052490;28;20430;-76
2023/10/13 03:42:19;;;;;;;8.20;6.80;;;23.30;63.40;;;;;;5052281;28;20405;-76
2023/10/13 03:44:48;;;;;;;10.20;6.80;;;23.30;63.40;;;;;;5052704;28;20528;-76
2023/10/13 03:47:26;;;;;;;9.80;7.53;;;23.30;63.60;;;;;;5052601;28;20493;-76
2023/10/13 03:50:15;;;;;;;17.30;6.80;;;23.30;63.60;;;;;;5048349;28;20478;-76
2023/10/13 03:52:42;;;;;;;7.87;6.90;;;23.30;63.70;;;;;;5052249;28;20559;-76
2023/10/13 03:55:17;;;;;;;7.77;6.97;;;23.30;63.60;;;;;;5052045;28;20469;-75
2023/10/13 03:57:50;;;;;;;7.70;6.90;;;23.30;63.70;;;;;;5049104;28;20430;-76
2023/10/13 04:00:23;;;;;;;7.47;6.73;;;23.30;63.70;;;;;;5052068;28;20438;-75
2023/10/13 04:03:04;;;;;;;10.03;6.90;;;23.30;63.80;;;;;;5052895;28;20461;-75
2023/10/13 04:05:39;;;;;;;8.10;6.57;;;23.40;63.90;;;;;;5056274;28;20454;-75
2023/10/13 04:14:22;;;;;;;7.10;6.00;;;23.40;64.10;;;;;;5050744;28;20448;-75
2023/10/13 04:16:54;;;;;;;7.90;6.43;;;23.40;64.30;;;;;;5048321;28;20454;-75
2023/10/13 04:19:26;;;;;;;7.07;6.37;;;23.40;64.40;;;;;;5051670;28;20446;-75
2023/10/13 04:22:14;;;;;;;6.73;6.00;;;23.40;64.30;;;;;;5055698;28;20469;-76
2023/10/13 04:27:44;;;;;;;7.30;6.60;;;23.30;64.30;;;;;;5054134;28;20426;-75
2023/10/13 04:30:19;;;;;;;6.00;5.50;;;23.30;64.40;;;;;;5053323;28;20476;-75
2023/10/13 04:33:05;;;;;;;6.93;6.23;;;23.40;64.60;;;;;;5049816;28;20431;-76
2023/10/13 04:35:35;;;;;;;7.20;5.53;;;23.40;65.10;;;;;;5052361;28;20427;-76
2023/10/13 04:38:19;;;;;;;6.97;6.30;;;23.40;64.60;;;;;;5053563;28;20530;-75
2023/10/13 04:40:58;;;;;;;6.03;5.47;;;23.40;64.40;;;;;;5050234;28;20522;-75
2023/10/13 04:43:55;;;;;;;6.00;5.50;;;23.40;64.40;;;;;;5052480;28;20530;-75
2023/10/13 04:46:35;;;;;;;6.63;6.03;;;23.40;64.60;;;;;;5049820;28;20446;-76
2023/10/13 04:49:09;;;;;;;6.80;6.20;;;23.40;64.60;;;;;;5052210;28;20434;-76
2023/10/13 04:51:50;;;;;;;8.10;6.10;;;23.40;64.80;;;;;;5043103;28;20494;-76
2023/10/13 04:54:32;;;;;;;12.20;7.00;;;23.40;64.80;;;;;;5043304;28;20450;-76
2023/10/13 05:03:17;;;;;;;6.73;6.00;;;23.40;65.10;;;;;;5014966;28;20466;-76
2023/10/13 05:06:10;;;;;;;10.90;5.90;;;23.40;65.20;;;;;;5044189;28;20441;-76
2023/10/13 05:45:24;;;;;;;6.50;5.93;;;23.30;66.80;;;;;;5048800;28;20489;-75
2023/10/13 05:48:02;;;;;;;8.27;5.47;;;23.30;67.00;;;;;;5051064;28;20423;-75
2023/10/13 05:50:49;;;;;;;6.43;5.83;;;23.30;67.00;;;;;;5053996;28;20458;-75
2023/10/13 06:29:19;;;;;;;6.20;5.60;;;23.30;68.40;;;;;;5053448;28;20540;-76
2023/10/13 06:31:49;;;;;;;6.50;5.90;;;23.30;68.60;;;;;;5052894;28;20466;-75
2023/10/13 06:34:20;;;;;;;9.00;5.87;;;23.30;68.40;;;;;;5047272;28;20465;-75
2023/10/13 06:36:48;;;;;;;10.27;6.37;;;23.40;68.80;;;;;;5053660;28;20445;-75
2023/10/13 06:39:35;;;;;;;6.83;5.23;;;23.40;68.70;;;;;;5048401;28;20422;-76
2023/10/13 06:42:03;;;;;;;6.57;5.87;;;23.40;69.10;;;;;;5052858;28;20434;-75
2023/10/13 06:44:32;;;;;;;5.90;5.33;;;23.40;69.10;;;;;;5038360;28;20467;-75
2023/10/13 06:47:03;;;;;;;6.17;5.67;;;23.40;69.10;;;;;;5049463;28;20449;-75
2023/10/13 06:49:38;;;;;;;9.27;5.90;;;23.40;69.20;;;;;;5053535;28;20546;-75
2023/10/13 06:52:08;;;;;;;6.00;5.40;;;23.40;69.20;;;;;;5043901;28;20466;-73
2023/10/13 06:54:37;;;;;;;6.43;5.40;;;23.40;69.20;;;;;;5052382;28;20526;-76
2023/10/13 06:57:06;;;;;;;5.63;4.80;;;23.40;69.40;;;;;;5052317;28;20443;-75
2023/10/13 06:59:40;;;;;;;5.90;4.90;;;23.40;69.30;;;;;;5051872;28;20529;-76
2023/10/13 07:02:15;;;;;;;6.07;5.40;;;23.40;69.40;;;;;;5054867;28;20442;-76
2023/10/13 07:05:07;;;;;;;7.90;5.03;;;23.40;69.50;;;;;;5052527;28;20458;-76
2023/10/13 07:07:38;;;;;;;5.13;4.63;;;23.40;69.50;;;;;;5051748;28;20438;-77
2023/10/13 07:10:09;;;;;;;5.17;4.67;;;23.40;69.70;;;;;;5052289;28;20446;-77
2023/10/13 07:12:38;;;;;;;5.10;4.60;;;23.40;69.70;;;;;;5052879;28;20541;-77
2023/10/13 07:15:10;;;;;;;5.10;4.60;;;23.40;69.80;;;;;;5047689;28;20609;-77
2023/10/13 07:17:40;;;;;;;4.70;4.30;;;23.40;69.80;;;;;;5052104;28;20520;-77
2023/10/13 07:20:23;;;;;;;5.67;4.73;;;23.40;70.00;;;;;;5048842;28;20454;-77
2023/10/13 07:22:57;;;;;;;4.63;4.30;;;23.40;70.00;;;;;;5052344;28;20450;-77
2023/10/13 07:25:26;;;;;;;4.53;4.03;;;23.40;70.00;;;;;;5052510;28;20552;-77
2023/10/13 07:27:56;;;;;;;4.40;4.10;;;23.40;70.00;;;;;;5053726;28;21029;-77
2023/10/13 07:30:27;;;;;;;4.93;4.50;;;23.40;70.00;;;;;;5051626;28;20467;-76
2023/10/13 07:32:59;;;;;;;4.43;4.13;;;23.40;70.10;;;;;;5036696;28;20478;-76
2023/10/13 07:35:31;;;;;;;4.30;3.90;;;23.40;70.10;;;;;;5053716;28;20475;-75
2023/10/13 07:38:01;;;;;;;4.63;4.23;;;23.40;70.00;;;;;;5044026;28;20905;-76
2023/10/13 07:40:40;;;;;;;5.20;4.20;;;23.40;70.00;;;;;;5047551;28;20933;-76
2023/10/13 07:43:11;;;;;;;4.80;4.30;;;23.40;70.00;;;;;;5050743;28;20442;-76
2023/10/13 07:45:40;;;;;;;5.80;4.13;;;23.40;70.10;;;;;;5051586;28;20522;-76
2023/10/13 07:48:16;;;;;;;4.10;3.77;;;23.40;70.00;;;;;;5044565;28;20496;-76
2023/10/13 07:50:46;;;;;;;4.37;3.97;;;23.40;70.00;;;;;;5050123;28;20933;-75
2023/10/13 07:53:24;;;;;;;5.70;4.47;;;23.50;70.00;;;;;;5045691;28;20474;-76
2023/10/13 07:55:55;;;;;;;4.43;3.93;;;23.40;70.00;;;;;;5051459;28;20474;-75
2023/10/13 07:58:25;;;;;;;4.43;4.10;;;23.50;70.20;;;;;;5049865;28;20470;-76
2023/10/13 08:01:06;;;;;;;4.17;3.87;;;23.50;70.30;;;;;;5050570;28;20841;-75
2023/10/13 08:03:47;;;;;;;4.10;3.80;;;23.50;70.30;;;;;;5050327;28;20454;-75
2023/10/13 08:06:19;;;;;;;4.33;3.93;;;23.50;70.10;;;;;;5050370;28;20959;-76
2023/10/13 08:08:54;;;;;;;4.30;4.00;;;23.50;70.10;;;;;;5053720;28;20431;-77
2023/10/13 08:11:30;;;;;;;5.10;3.67;;;23.60;70.10;;;;;;5049434;28;20515;-76
2023/10/13 08:14:10;;;;;;;3.83;3.53;;;23.60;70.00;;;;;;5049544;28;20445;-75
2023/10/13 08:16:59;;;;;;;4.60;4.00;;;23.60;69.90;;;;;;5049559;28;20481;-75
2023/10/13 08:19:31;;;;;;;4.50;3.83;;;23.60;70.00;;;;;;5051248;28;20430;-75
2023/10/13 08:22:23;;;;;;;4.27;3.87;;;23.70;70.00;;;;;;5051570;28;20431;-75
2023/10/13 08:25:14;;;;;;;3.50;3.20;;;23.70;70.00;;;;;;5049696;28;20462;-77
2023/10/13 08:30:31;;;;;;;3.73;3.40;;;23.80;70.00;;;;;;5027760;28;20520;-75
2023/10/13 08:33:16;;;;;;;4.17;3.80;;;23.80;69.80;;;;;;5055668;28;21105;-74
2023/10/13 08:36:17;;;;;;;4.03;3.73;;;23.80;69.70;;;;;;5055197;28;20533;-76
2023/10/13 08:38:51;;;;;;;4.07;3.60;;;23.80;69.70;;;;;;5054900;28;20917;-75
2023/10/13 08:41:31;;;;;;;3.30;3.10;;;23.80;69.60;;;;;;5054799;28;20488;-77
2023/10/13 08:44:04;;;;;;;3.90;3.47;;;23.80;69.70;;;;;;5055926;28;20504;-77
2023/10/13 08:46:51;;;;;;;5.23;4.00;;;23.80;69.40;;;;;;5057110;28;20422;-77
2023/10/13 08:49:23;;;;;;;3.20;2.90;;;23.80;69.60;;;;;;5056971;28;20516;-76
2023/10/13 08:52:04;;;;;;;3.47;3.20;;;23.80;69.50;;;;;;5055456;28;20533;-76
2023/10/13 08:54:39;;;;;;;3.10;2.90;;;23.80;69.50;;;;;;5055816;28;20490;-76
2023/10/13 08:57:32;;;;;;;4.40;3.50;;;23.80;69.50;;;;;;5056514;28;20453;-77
2023/10/13 09:03:28;;;;;;;4.30;3.30;;;23.90;69.50;;;;;;5046297;28;20442;-76
2023/10/13 09:06:00;;;;;;;3.50;3.20;;;23.90;69.50;;;;;;5048266;28;20454;-77
2023/10/13 09:08:35;;;;;;;3.63;3.33;;;23.90;69.50;;;;;;5038950;28;20448;-76
2023/10/13 09:11:12;;;;;;;8.63;3.70;;;23.90;69.60;;;;;;5038344;28;20498;-77
2023/10/13 09:13:46;;;;;;;7.10;3.73;;;23.90;69.60;;;;;;5038521;28;20471;-76
2023/10/13 09:16:21;;;;;;;4.07;3.33;;;23.90;69.70;;;;;;5069858;28;20448;-76
2023/10/13 09:18:52;;;;;;;3.90;3.27;;;23.90;69.70;;;;;;5078392;28;20389;-78
2023/10/13 09:21:34;;;;;;;3.93;3.50;;;23.90;69.70;;;;;;5075122;28;20508;-76
2023/10/13 09:24:21;;;;;;;3.53;3.13;;;23.90;69.70;;;;;;5061289;28;20454;-78
2023/10/13 09:26:55;;;;;;;6.00;3.63;;;24.00;69.80;;;;;;5058830;28;20439;-76
2023/10/13 09:29:24;;;;;;;4.40;3.47;;;24.00;70.10;;;;;;5059464;28;20446;-77
2023/10/13 09:32:00;;;;;;;3.93;3.53;;;24.10;70.30;;;;;;5058294;28;20511;-77
2023/10/13 09:34:31;;;;;;;6.20;3.50;;;24.10;70.00;;;;;;5061364;28;20485;-78
2023/10/13 09:36:59;;;;;;;5.30;3.37;;;24.20;70.00;;;;;;5062460;28;20439;-78
2023/10/13 09:39:34;;;;;;;5.50;3.53;;;24.30;69.80;;;;;;5065681;28;20454;-78
2023/10/13 09:42:10;;;;;;;7.40;3.07;;;24.20;69.80;;;;;;5066624;28;20434;-79
2023/10/13 09:44:40;;;;;;;4.53;3.20;;;24.30;69.60;;;;;;5062530;28;20513;-79
2023/10/13 09:47:16;;;;;;;5.80;3.40;;;24.30;70.00;;;;;;5065032;28;20479;-79
2023/10/13 09:49:48;;;;;;;5.53;3.30;;;24.40;69.80;;;;;;5061930;28;20423;-79
2023/10/13 09:52:19;;;;;;;4.93;3.47;;;24.40;70.00;;;;;;5073746;28;20437;-80
2023/10/13 09:55:01;;;;;;;4.40;3.70;;;24.50;69.70;;;;;;5072073;28;20485;-78
2023/10/13 09:57:34;;;;;;;4.50;3.67;;;24.40;69.80;;;;;;5067618;28;20442;-79
2023/10/13 10:00:26;;;;;;;5.40;3.50;;;24.40;69.90;;;;;;5070320;28;20417;-80
2023/10/13 10:02:58;;;;;;;4.90;4.10;;;24.50;70.10;;;;;;5069388;28;20443;-80
2023/10/13 10:05:26;;;;;;;7.23;3.93;;;24.50;70.50;;;;;;5063110;28;20490;-76
2023/10/13 10:07:56;;;;;;;11.43;4.00;;;24.70;70.60;;;;;;5059380;28;20446;-77
2023/10/13 10:10:24;;;;;;;9.10;4.10;;;24.80;70.50;;;;;;5056572;28;20443;-78
2023/10/13 10:12:57;;;;;;;7.47;4.37;;;25.00;70.60;;;;;;5061659;28;20445;-77
2023/10/13 10:15:33;;;;;;;8.17;4.00;;;25.20;70.90;;;;;;5057564;28;20473;-78
2023/10/13 10:18:02;;;;;;;9.60;4.00;;;25.30;69.40;;;;;;5056702;28;20405;-79
2023/10/13 10:20:44;;;;;;;5.53;4.20;;;25.20;69.60;;;;;;5063558;28;20434;-78
2023/10/13 10:23:23;;;;;;;5.60;3.70;;;25.20;70.10;;;;;;5063528;28;20434;-79
2023/10/13 10:25:52;;;;;;;8.87;4.07;;;25.20;70.20;;;;;;5065404;28;20450;-79
2023/10/13 10:28:21;;;;;;;6.60;3.50;;;25.10;70.40;;;;;;5064060;28;20445;-79
2023/10/13 10:30:49;;;;;;;7.67;4.30;;;25.10;70.70;;;;;;5064969;28;20426;-79
2023/10/13 10:33:18;;;;;;;8.17;4.50;;;25.00;70.90;;;;;;5065236;28;20459;-79
2023/10/13 10:35:47;;;;;;;7.37;4.00;;;25.00;71.30;;;;;;5065604;28;20447;-79
2023/10/13 10:38:23;;;;;;;7.10;4.40;;;25.00;71.30;;;;;;5066295;28;20446;-79
2023/10/13 10:40:56;;;;;;;7.30;4.03;;;25.00;71.50;;;;;;5065582;28;20417;-80
2023/10/13 10:43:29;;;;;;;4.40;3.90;;;25.00;71.90;;;;;;5066951;28;20441;-79
2023/10/13 10:46:01;;;;;;;5.60;3.87;;;25.00;71.90;;;;;;5063105;28;20425;-78
2023/10/13 10:48:34;;;;;;;6.53;4.33;;;25.00;72.20;;;;;;5057839;28;20525;-78
2023/10/13 10:51:13;;;;;;;8.77;4.17;;;25.10;72.10;;;;;;5064583;28;20929;-78
2023/10/13 10:53:44;;;;;;;6.87;4.07;;;25.20;71.90;;;;;;5064881;28;20470;-79
2023/10/13 10:56:24;;;;;;;11.37;4.27;;;25.20;72.10;;;;;;5066915;28;20428;-78
2023/10/13 10:58:56;;;;;;;6.67;4.80;;;25.20;72.30;;;;;;5067660;28;20439;-80
2023/10/13 11:01:33;;;;;;;8.03;4.40;;;25.10;72.70;;;;;;5066122;28;20473;-80
2023/10/13 11:04:07;;;;;;;8.87;4.20;;;25.10;72.70;;;;;;5066878;28;20458;-80
2023/10/13 11:06:41;;;;;;;9.73;4.30;;;25.10;73.00;;;;;;5067314;28;20453;-80
2023/10/13 11:09:20;;;;;;;5.93;4.47;;;25.10;73.40;;;;;;5055400;28;20466;-77
2023/10/13 11:11:52;;;;;;;7.00;4.20;;;25.20;73.60;;;;;;5054227;28;20525;-79
2023/10/13 11:14:24;;;;;;;13.50;4.87;;;25.20;73.40;;;;;;5068290;28;20458;-80
2023/10/13 11:16:53;;;;;;;9.53;5.07;;;25.30;73.30;;;;;;5067333;28;20423;-80
2023/10/13 11:19:25;;;;;;;11.27;4.37;;;25.30;73.20;;;;;;5066354;28;20513;-80
2023/10/13 11:21:55;;;;;;;6.60;4.40;;;25.30;73.10;;;;;;5056320;28;20512;-81
2023/10/13 11:24:23;;;;;;;5.40;4.40;;;25.30;74.00;;;;;;5049070;28;20433;-77
2023/10/13 11:26:52;;;;;;;14.30;4.17;;;25.30;73.60;;;;;;5045594;28;20454;-79
2023/10/13 11:29:20;;;;;;;8.23;4.43;;;25.30;73.80;;;;;;5050729;28;20447;-77
2023/10/13 11:32:03;;;;;;;10.30;4.93;;;25.20;74.00;;;;;;5082537;27;20598;-78
2023/10/13 11:34:39;;;;;;;15.10;5.00;;;25.20;74.30;;;;;;5056455;28;20451;-79
2023/10/13 11:39:54;;;;;;;9.07;4.47;;;25.20;74.50;;;;;;5057959;28;20439;-79
2023/10/13 11:42:21;;;;;;;11.50;5.00;;;25.20;74.50;;;;;;5054374;28;20459;-80
2023/10/13 11:45:09;;;;;;;10.40;5.07;;;25.20;74.70;;;;;;5070970;22;20564;-75
2023/10/13 11:47:50;;;;;;;8.83;4.53;;;25.30;75.80;;;;;;5044579;28;20450;-75
2023/10/13 11:50:32;;;;;;;7.20;5.33;;;25.30;74.90;;;;;;5043712;28;20527;-76
2023/10/13 11:53:01;;;;;;;8.03;5.23;;;25.30;74.60;;;;;;5039644;28;20905;-75
2023/10/13 11:55:29;;;;;;;9.50;5.00;;;25.30;74.70;;;;;;5043039;28;20503;-76
2023/10/13 11:57:59;;;;;;;11.80;4.60;;;25.40;74.90;;;;;;5041446;28;20870;-76
2023/10/13 12:00:50;;;;;;;10.87;5.50;;;25.40;75.00;;;;;;5045667;28;20454;-75
2023/10/13 12:06:22;;;;;;;6.43;4.90;;;25.40;74.90;;;;;;5038929;28;20454;-75
2023/10/13 12:08:51;;;;;;;9.27;4.97;;;25.40;75.00;;;;;;5042822;28;20553;-75
2023/10/13 12:11:32;;;;;;;8.80;5.00;;;25.50;74.80;;;;;;5047119;28;20445;-76
2023/10/13 12:14:11;;;;;;;10.77;4.70;;;25.50;74.80;;;;;;5051328;28;20430;-75
2023/10/13 12:16:48;;;;;;;11.80;5.03;;;25.60;74.80;;;;;;5041713;28;20463;-76
2023/10/13 12:19:23;;;;;;;10.83;5.07;;;25.60;74.70;;;;;;5044307;28;20457;-76
2023/10/13 12:21:54;;;;;;;12.10;4.80;;;25.60;74.80;;;;;;5046019;28;20420;-75
2023/10/13 12:24:39;;;;;;;11.77;5.53;;;25.60;74.80;;;;;;5044125;28;20472;-76
2023/10/13 12:27:18;;;;;;;16.00;5.47;;;25.70;74.60;;;;;;5046474;28;20488;-76
2023/10/13 12:29:49;;;;;;;8.20;5.30;;;25.70;74.50;;;;;;5040680;28;20461;-76
2023/10/13 12:32:22;;;;;;;15.30;5.50;;;25.80;74.30;;;;;;5044823;28;20472;-76
2023/10/13 12:35:17;;;;;;;11.63;4.87;;;25.80;74.10;;;;;;5043980;28;20460;-75
2023/10/13 12:37:50;;;;;;;11.37;5.23;;;25.90;74.50;;;;;;5039144;28;20427;-77
2023/10/13 12:49:03;;;;;;;11.80;5.17;;;26.00;73.80;;;;;;5031191;28;20492;-76
2023/10/13 12:54:23;;;;;;;13.10;4.90;;;25.90;74.00;;;;;;5028267;28;20447;-76
2023/10/13 12:56:56;;;;;;;17.23;5.30;;;25.90;74.20;;;;;;5036444;28;20472;-77
2023/10/13 12:59:27;;;;;;;14.63;5.30;;;26.00;74.10;;;;;;5035504;28;20782;-77
2023/10/13 13:01:58;;;;;;;11.03;5.30;;;26.00;74.10;;;;;;5028495;28;20435;-77
2023/10/13 13:04:32;;;;;;;9.70;5.83;;;26.00;74.00;;;;;;5030321;28;20530;-78
2023/10/13 13:07:05;;;;;;;9.93;5.13;;;25.90;74.20;;;;;;5035456;28;20487;-76
2023/10/13 13:09:37;;;;;;;17.10;5.50;;;25.90;74.20;;;;;;5031270;28;21154;-75
2023/10/13 13:12:08;;;;;;;11.53;5.20;;;25.90;74.10;;;;;;5031488;28;20464;-75
2023/10/13 13:14:40;;;;;;;10.30;5.30;;;25.90;74.10;;;;;;5033599;28;20438;-75
2023/10/13 13:17:11;;;;;;;9.17;5.10;;;25.90;74.20;;;;;;5023571;28;20455;-75
2023/10/13 13:19:40;;;;;;;13.67;5.37;;;25.90;74.10;;;;;;5029748;28;20433;-76
2023/10/13 13:22:11;;;;;;;8.60;5.83;;;25.90;74.10;;;;;;5034234;28;20422;-76
2023/10/13 13:24:43;;;;;;;11.03;5.10;;;25.90;74.00;;;;;;5024239;28;20441;-77
2023/10/13 13:27:13;;;;;;;24.40;6.17;;;25.90;74.10;;;;;;5033089;28;20460;-76
2023/10/13 13:29:44;;;;;;;15.13;5.90;;;25.90;74.00;;;;;;5030221;28;20433;-76
2023/10/13 13:32:18;;;;;;;9.77;5.40;;;25.90;74.10;;;;;;5018908;28;20472;-77
2023/10/13 13:34:54;;;;;;;11.93;5.40;;;25.90;74.10;;;;;;5020549;28;20512;-75
2023/10/13 13:37:27;;;;;;;9.70;5.30;;;25.90;74.00;;;;;;5027285;28;20439;-75
2023/10/13 13:39:55;;;;;;;14.70;5.80;;;25.90;74.00;;;;;;5028869;28;20439;-75
2023/10/13 13:42:23;;;;;;;15.50;5.87;;;26.00;73.90;;;;;;5028866;28;20445;-75
2023/10/13 13:44:51;;;;;;;11.20;5.70;;;26.00;73.60;;;;;;5029100;28;20468;-75
2023/10/13 13:47:20;;;;;;;10.43;5.50;;;26.00;73.70;;;;;;5030401;28;20512;-76
2023/10/13 13:49:51;;;;;;;12.10;5.60;;;26.00;73.50;;;;;;5021629;28;20478;-76
2023/10/13 13:52:33;;;;;;;10.30;5.57;;;25.90;73.50;;;;;;5025660;28;20478;-76
2023/10/13 13:55:05;;;;;;;9.10;5.70;;;25.90;73.50;;;;;;5027538;28;20525;-75
2023/10/13 13:57:34;;;;;;;12.50;5.20;;;25.90;73.40;;;;;;5031391;28;20987;-75
2023/10/13 14:00:06;;;;;;;8.60;5.23;;;25.90;73.50;;;;;;5027046;28;20473;-75
2023/10/13 14:02:35;;;;;;;8.67;5.47;;;26.00;73.50;;;;;;5029456;28;20436;-75
2023/10/13 14:05:04;;;;;;;15.57;6.30;;;26.00;73.10;;;;;;5019806;28;20476;-76
2023/10/13 14:07:32;;;;;;;7.87;5.30;;;26.00;72.90;;;;;;5025536;28;20507;-75
2023/10/13 14:10:06;;;;;;;11.30;5.80;;;26.00;72.90;;;;;;5032095;28;20501;-76
2023/10/13 14:12:42;;;;;;;10.43;6.03;;;26.00;72.90;;;;;;5028457;28;20479;-75
2023/10/13 14:15:23;;;;;;;14.67;5.70;;;26.00;72.70;;;;;;5030611;28;21056;-76
2023/10/13 14:17:58;;;;;;;9.93;5.40;;;26.00;73.10;;;;;;5023186;28;20506;-76
2023/10/13 14:20:28;;;;;;;9.90;5.90;;;26.00;72.70;;;;;;5024884;28;20492;-78
2023/10/13 14:22:59;;;;;;;13.33;6.13;;;26.00;72.60;;;;;;5022660;28;20476;-76
2023/10/13 14:25:37;;;;;;;12.50;5.60;;;26.00;72.60;;;;;;5031103;28;20474;-77
2023/10/13 14:28:11;;;;;;;15.13;6.47;;;26.00;72.50;;;;;;5026337;28;20434;-76
2023/10/13 14:30:42;;;;;;;12.33;6.00;;;26.00;72.10;;;;;;5015533;28;20444;-76
2023/10/13 14:33:14;;;;;;;8.37;6.27;;;26.00;72.10;;;;;;5015572;28;20517;-77
2023/10/13 14:35:47;;;;;;;12.10;6.23;;;26.00;72.00;;;;;;5027865;28;20556;-76
2023/10/13 14:38:19;;;;;;;10.60;5.60;;;26.00;72.00;;;;;;5025414;28;20444;-76
2023/10/13 14:40:53;;;;;;;12.30;6.10;;;26.00;71.80;;;;;;5016470;28;20436;-77
2023/10/13 14:43:27;;;;;;;11.20;5.23;;;26.00;71.90;;;;;;5014154;28;20459;-76
2023/10/13 14:46:00;;;;;;;8.90;5.93;;;26.00;71.90;;;;;;5014631;28;20480;-76
2023/10/13 14:48:31;;;;;;;15.40;6.40;;;26.00;71.90;;;;;;5033189;28;20471;-76
2023/10/13 14:50:59;;;;;;;20.30;6.40;;;26.00;71.60;;;;;;5035574;28;20429;-76
2023/10/13 14:53:36;;;;;;;14.30;5.80;;;26.00;71.70;;;;;;5034038;28;20454;-75
2023/10/13 14:56:12;;;;;;;15.40;5.80;;;26.00;71.60;;;;;;5025631;28;20438;-75
2023/10/13 14:58:43;;;;;;;17.03;6.63;;;26.00;71.50;;;;;;5024038;28;20434;-75
2023/10/13 15:01:17;;;;;;;9.83;6.10;;;26.00;71.70;;;;;;5032836;28;20450;-76
2023/10/13 15:03:49;;;;;;;11.00;5.80;;;26.00;71.70;;;;;;5031665;28;20422;-75
2023/10/13 15:06:18;;;;;;;9.17;5.67;;;26.00;71.60;;;;;;5021718;28;20448;-76
2023/10/13 15:08:47;;;;;;;13.27;5.83;;;25.90;71.80;;;;;;5014411;28;20507;-75